createdAt,value
2023-03-29T00:05:11.080Z,17
2023-03-29T00:11:16.840Z,17
2023-03-29T00:17:22.019Z,17
2023-03-29T00:23:27.798Z,17
2023-03-29T00:29:32.966Z,17
2023-03-29T00:35:38.342Z,17
2023-03-29T00:41:43.713Z,17
2023-03-29T00:47:49.240Z,17
2023-03-29T00:53:54.975Z,16.9
2023-03-29T01:00:00.419Z,16.9
2023-03-29T01:06:05.733Z,16.9
2023-03-29T01:12:11.512Z,16.9
2023-03-29T01:18:16.692Z,16.9
2023-03-29T01:24:21.834Z,16.9
2023-03-29T01:30:26.636Z,16.9
2023-03-29T01:36:32.578Z,16.8
2023-03-29T01:42:37.980Z,16.8
2023-03-29T01:48:43.503Z,16.8
2023-03-29T01:54:49.495Z,16.8
2023-03-29T02:00:54.880Z,16.8
2023-03-29T02:07:00.860Z,16.8
2023-03-29T02:13:06.829Z,16.7
2023-03-29T02:19:12.198Z,16.7
2023-03-29T02:25:17.578Z,16.7
2023-03-29T02:31:23.377Z,16.7
2023-03-29T02:37:29.132Z,16.7
2023-03-29T02:43:34.689Z,16.7
2023-03-29T02:49:40.465Z,16.7
2023-03-29T02:55:46.059Z,16.6
2023-03-29T03:01:51.849Z,16.6
2023-03-29T03:07:57.458Z,16.6
2023-03-29T03:14:03.007Z,16.6
2023-03-29T03:20:08.395Z,16.6
2023-03-29T03:26:14.087Z,16.6
2023-03-29T03:32:19.666Z,16.6
2023-03-29T03:38:25.091Z,16.6
2023-03-29T03:44:30.812Z,16.6
2023-03-29T03:50:36.580Z,16.6
2023-03-29T03:56:42.427Z,16.6
2023-03-29T04:02:48.054Z,16.5
2023-03-29T04:08:53.558Z,16.6
2023-03-29T04:14:59.160Z,16.6
2023-03-29T04:21:04.969Z,16.5
2023-03-29T04:27:10.510Z,16.6
2023-03-29T04:33:16.008Z,16.5
2023-03-29T04:39:21.432Z,16.5
2023-03-29T04:45:27.048Z,16.5
2023-03-29T04:51:32.781Z,16.6
2023-03-29T04:57:38.140Z,16.7
2023-03-29T05:03:43.162Z,16.8
2023-03-29T05:09:48.643Z,17
2023-03-29T05:15:54.627Z,17.1
2023-03-29T05:22:00.220Z,17.3
2023-03-29T05:28:05.621Z,17.3
2023-03-29T05:34:11.192Z,17.3
2023-03-29T05:40:16.688Z,17.3
2023-03-29T05:46:22.302Z,17.4
2023-03-29T05:52:28.228Z,17.3
2023-03-29T05:58:33.797Z,17.3
2023-03-29T06:04:39.527Z,17.3
2023-03-29T06:10:45.431Z,17.3
2023-03-29T06:16:50.954Z,17.3
2023-03-29T06:22:56.522Z,17.3
2023-03-29T06:29:02.364Z,17.2
2023-03-29T06:35:07.858Z,17.3
2023-03-29T06:41:13.422Z,17.3
2023-03-29T06:47:19.205Z,17.3
2023-03-29T06:53:24.800Z,17.2
2023-03-29T06:59:30.366Z,17.3
2023-03-29T07:05:35.952Z,17.3
2023-03-29T07:11:42.121Z,17.3
2023-03-29T07:17:48.154Z,17.4
2023-03-29T07:23:54.498Z,17.3
2023-03-29T07:30:00.325Z,17.4
2023-03-29T07:36:05.679Z,17.4
2023-03-29T07:42:11.840Z,17.4
2023-03-29T07:48:18.018Z,17.4
2023-03-29T07:54:24.020Z,17.4
2023-03-29T08:00:30.006Z,17.5
2023-03-29T08:06:35.754Z,17.5
2023-03-29T08:12:41.413Z,17.5
2023-03-29T08:18:47.313Z,17.5
2023-03-29T08:24:53.137Z,17.5
2023-03-29T08:30:58.684Z,17.5
2023-03-29T08:37:04.921Z,17.5
2023-03-29T08:43:10.611Z,17.6
2023-03-29T08:49:16.254Z,17.7
2023-03-29T08:55:22.450Z,17.8
2023-03-29T09:01:27.973Z,17.8
2023-03-29T09:07:33.939Z,17.7
2023-03-29T09:13:39.746Z,17.6
2023-03-29T09:19:45.496Z,17.8
2023-03-29T09:25:53.965Z,17.8
2023-03-29T09:31:59.943Z,17.7
2023-03-29T09:38:06.091Z,17.8
2023-03-29T09:44:20.726Z,17.7
2023-03-29T09:50:34.648Z,17.8
2023-03-29T09:56:40.461Z,17.9
2023-03-29T10:02:46.235Z,17.8
2023-03-29T10:08:52.208Z,17.8
2023-03-29T10:15:00.878Z,17.8
2023-03-29T10:21:06.428Z,17.8
2023-03-29T10:27:11.619Z,17.8
2023-03-29T10:33:17.146Z,17.8
2023-03-29T10:39:22.575Z,17.8
2023-03-29T10:45:28.495Z,17.9
2023-03-29T10:51:34.525Z,18
2023-03-29T10:57:40.488Z,18
2023-03-29T11:03:46.522Z,18
2023-03-29T11:09:52.064Z,18
2023-03-29T11:15:57.655Z,18
2023-03-29T11:22:03.436Z,18
2023-03-29T11:28:09.192Z,18
2023-03-29T11:34:14.966Z,18.1
2023-03-29T11:40:20.751Z,18
2023-03-29T11:46:25.901Z,18
2023-03-29T11:52:31.470Z,18
2023-03-29T11:58:38.976Z,18.1
2023-03-29T12:04:44.885Z,18.1
2023-03-29T12:10:50.288Z,18.1
2023-03-29T12:16:56.639Z,18.1
2023-03-29T12:23:02.580Z,18.1
2023-03-29T12:29:08.561Z,18
2023-03-29T12:35:14.955Z,18
2023-03-29T12:41:20.917Z,18
2023-03-29T12:47:26.848Z,18
2023-03-29T12:53:33.544Z,18.1
2023-03-29T12:59:38.950Z,18
2023-03-29T13:05:44.992Z,18.1
2023-03-29T13:11:50.823Z,18.1
2023-03-29T13:17:56.429Z,18
2023-03-29T13:24:02.381Z,18.1
2023-03-29T13:30:08.575Z,18.1
2023-03-29T13:36:14.368Z,18.1
2023-03-29T13:42:19.547Z,18.1
2023-03-29T13:48:25.315Z,18.1
2023-03-29T13:54:30.896Z,18.1
2023-03-29T14:00:36.256Z,18
2023-03-29T14:06:42.846Z,18
2023-03-29T14:12:48.817Z,18
2023-03-29T14:18:54.816Z,18
2023-03-29T14:25:01.218Z,18.1
2023-03-29T14:31:06.550Z,18.2
2023-03-29T14:37:12.189Z,18.2
2023-03-29T14:43:17.508Z,18.3
2023-03-29T14:49:22.866Z,18.3
2023-03-29T14:55:28.488Z,18.4
2023-03-29T15:01:35.036Z,18.3
2023-03-29T15:07:40.789Z,18.3
2023-03-29T15:13:46.435Z,18.3
2023-03-29T15:19:52.775Z,18.3
2023-03-29T15:25:59.018Z,18.3
2023-03-29T15:32:04.779Z,18.3
2023-03-29T15:38:10.951Z,18.3
2023-03-29T15:44:16.729Z,18.3
2023-03-29T15:50:22.505Z,18.3
2023-03-29T15:56:28.885Z,18.3
2023-03-29T16:02:35.126Z,18.3
2023-03-29T16:08:41.665Z,18.2
2023-03-29T16:14:47.456Z,18.2
2023-03-29T16:20:53.221Z,18.2
2023-03-29T16:26:59.407Z,18.2
2023-03-29T16:33:05.422Z,18.2
2023-03-29T16:39:11.559Z,18.2
2023-03-29T16:45:17.330Z,18.2
2023-03-29T16:51:23.208Z,18.2
2023-03-29T16:57:28.977Z,18.2
2023-03-29T17:03:35.061Z,18.2
2023-03-29T17:09:41.467Z,18.2
2023-03-29T17:15:47.266Z,18.2
2023-03-29T17:21:53.247Z,18.2
2023-03-29T17:27:59.018Z,18.2
2023-03-29T17:34:04.788Z,18.2
2023-03-29T17:40:10.454Z,18.2
2023-03-29T17:46:16.900Z,18.2
2023-03-29T17:52:23.006Z,18.2
2023-03-29T17:58:28.497Z,18.2
2023-03-29T18:04:34.328Z,18.2
2023-03-29T18:10:39.279Z,18.2
2023-03-29T18:16:44.825Z,18.2
2023-03-29T18:22:50.599Z,18.2
2023-03-29T18:28:55.984Z,18.2
2023-03-29T18:35:01.753Z,18.2
2023-03-29T18:41:07.750Z,18.2
2023-03-29T18:47:13.564Z,18.2
2023-03-29T18:53:19.547Z,18.2
2023-03-29T18:59:25.477Z,18.2
2023-03-29T19:05:31.507Z,18.2
2023-03-29T19:11:37.290Z,18.2
2023-03-29T19:17:43.106Z,18.2
2023-03-29T19:23:49.035Z,18.2
2023-03-29T19:29:54.598Z,18.2
2023-03-29T19:36:00.373Z,18.2
2023-03-29T19:42:06.718Z,18.2
2023-03-29T19:48:21.732Z,18.2
2023-03-29T19:54:28.305Z,18.2
2023-03-29T20:00:33.871Z,18.2
2023-03-29T20:06:39.877Z,18.2
2023-03-29T20:12:45.443Z,18.2
2023-03-29T20:18:50.860Z,18.2
2023-03-29T20:24:56.575Z,18.2
2023-03-29T20:31:02.845Z,18.2
2023-03-29T20:37:09.191Z,18.2
2023-03-29T20:43:14.737Z,18.2
2023-03-29T20:49:20.104Z,18.2
2023-03-29T20:55:25.688Z,18.2
2023-03-29T21:01:30.908Z,18.2
2023-03-29T21:07:36.272Z,18.2
2023-03-29T21:13:41.630Z,18.2
2023-03-29T21:19:46.995Z,18.2
2023-03-29T21:25:52.772Z,18.2
2023-03-29T21:31:58.369Z,18.2
2023-03-29T21:38:04.062Z,18.2
2023-03-29T21:44:09.853Z,18.1
2023-03-29T21:50:15.061Z,18.1
2023-03-29T21:56:20.190Z,18.1
2023-03-29T22:02:26.202Z,18.1
2023-03-29T22:08:31.535Z,18.1
2023-03-29T22:14:37.338Z,18.1
2023-03-29T22:20:42.523Z,18.1
2023-03-29T22:26:48.251Z,18.1
2023-03-29T22:32:54.067Z,18.1
2023-03-29T22:38:59.819Z,18.1
2023-03-29T22:45:05.575Z,18.1
2023-03-29T22:51:11.352Z,18.1
2023-03-29T22:57:17.339Z,18.1
2023-03-29T23:03:22.900Z,18
2023-03-29T23:09:28.060Z,18
2023-03-29T23:15:33.236Z,18
2023-03-29T23:21:38.801Z,18
2023-03-29T23:27:43.759Z,18
2023-03-29T23:33:49.569Z,18
2023-03-29T23:39:54.761Z,17.9
2023-03-29T23:46:00.304Z,17.9
2023-03-29T23:52:06.056Z,17.9
2023-03-29T23:58:11.635Z,17.9
